Time;durP1;ratioP1;P1;durP2;ratioP2;P2;SDS_P1;SDS_P2;PMS_P1;PMS_P2;Temp;Humidity;BMP_temperature;BMP_pressure;BME280_temperature;BME280_humidity;BME280_pressure;Samples;Min_cycle;Max_cycle;Signal;HPM_P1;HPM_P2
2021/09/20 00:00:17;;;;;;;5.95;3.78;;;10.80;99.90;;;;;;5098838;28;20070;-62
2021/09/20 00:02:44;;;;;;;5.40;3.63;;;10.80;99.90;;;;;;5105513;28;20138;-62
2021/09/20 00:05:10;;;;;;;5.60;4.38;;;10.60;99.90;;;;;;5101077;28;20040;-62
2021/09/20 00:07:37;;;;;;;5.88;4.38;;;10.50;99.90;;;;;;5103307;28;20044;-62
2021/09/20 00:10:05;;;;;;;6.85;4.25;;;10.40;99.90;;;;;;5104433;28;20046;-62
2021/09/20 00:12:31;;;;;;;6.25;4.18;;;10.40;99.90;;;;;;5096684;28;20122;-62
2021/09/20 00:14:56;;;;;;;6.00;3.83;;;10.40;99.90;;;;;;5103745;28;20079;-62
2021/09/20 00:17:22;;;;;;;5.18;3.97;;;10.40;99.90;;;;;;5101118;28;20056;-62
2021/09/20 00:19:48;;;;;;;5.93;3.88;;;10.40;99.90;;;;;;5099865;28;20043;-62
2021/09/20 00:22:13;;;;;;;6.57;4.80;;;10.40;99.90;;;;;;5099995;28;20051;-62
2021/09/20 00:24:39;;;;;;;5.75;4.05;;;10.40;99.90;;;;;;5106245;28;20044;-62
2021/09/20 00:27:07;;;;;;;8.35;5.43;;;10.40;99.90;;;;;;5105821;28;20055;-62
2021/09/20 00:29:34;;;;;;;6.35;4.70;;;10.20;99.90;;;;;;5099530;28;20054;-62
2021/09/20 00:32:00;;;;;;;6.90;4.40;;;10.20;99.90;;;;;;5105969;28;20298;-62
2021/09/20 00:34:26;;;;;;;7.20;4.32;;;10.10;99.90;;;;;;5102863;28;20036;-62
2021/09/20 00:36:52;;;;;;;7.78;4.97;;;10.00;99.90;;;;;;5091107;28;20076;-62
2021/09/20 00:39:17;;;;;;;6.97;4.38;;;10.00;99.90;;;;;;5101148;28;20048;-62
2021/09/20 00:41:43;;;;;;;6.90;4.70;;;10.00;99.90;;;;;;5104924;28;20044;-62
2021/09/20 00:44:09;;;;;;;7.03;5.13;;;10.00;99.90;;;;;;5104513;28;20089;-62
2021/09/20 00:46:34;;;;;;;10.10;6.10;;;10.10;99.90;;;;;;5104952;28;20068;-62
2021/09/20 00:49:00;;;;;;;6.60;5.50;;;10.10;99.90;;;;;;5102890;28;20072;-62
2021/09/20 00:51:26;;;;;;;7.20;5.50;;;10.20;99.90;;;;;;5103344;28;20052;-62
2021/09/20 00:53:52;;;;;;;6.13;5.13;;;10.20;99.90;;;;;;5103448;28;20047;-62
2021/09/20 00:56:18;;;;;;;7.40;6.05;;;10.30;99.90;;;;;;5097042;28;20083;-62
2021/09/20 00:58:45;;;;;;;5.97;4.22;;;10.20;99.90;;;;;;5097171;28;20047;-62
2021/09/20 01:01:11;;;;;;;8.40;4.55;;;10.10;99.90;;;;;;5132345;27;20048;-62
2021/09/20 01:03:37;;;;;;;5.40;4.55;;;10.00;99.90;;;;;;5100647;28;20047;-62
2021/09/20 01:06:03;;;;;;;8.80;5.43;;;9.90;99.90;;;;;;5096827;28;20040;-62
2021/09/20 01:08:29;;;;;;;7.88;5.20;;;9.70;99.90;;;;;;5102072;28;20044;-62
2021/09/20 01:10:55;;;;;;;6.95;4.80;;;9.70;99.90;;;;;;5097299;28;20105;-62
2021/09/20 01:13:20;;;;;;;8.52;5.03;;;9.80;99.90;;;;;;5094113;28;20032;-62
2021/09/20 01:15:46;;;;;;;6.72;4.88;;;9.80;99.90;;;;;;5100741;28;20044;-62
2021/09/20 01:18:12;;;;;;;6.03;4.80;;;9.80;99.90;;;;;;5101073;28;20108;-62
2021/09/20 01:20:38;;;;;;;6.88;4.47;;;9.80;99.90;;;;;;5101840;28;20067;-62
2021/09/20 01:23:04;;;;;;;5.80;4.55;;;9.70;99.90;;;;;;5098964;28;20094;-62
2021/09/20 01:25:31;;;;;;;7.70;5.07;;;9.60;99.90;;;;;;5103954;28;20089;-62
2021/09/20 01:27:58;;;;;;;8.68;6.43;;;9.50;99.90;;;;;;5101770;28;20105;-62
2021/09/20 01:30:24;;;;;;;7.78;5.35;;;9.50;99.90;;;;;;5103660;28;20036;-62
2021/09/20 01:32:50;;;;;;;8.60;4.93;;;9.50;99.90;;;;;;5093738;28;20048;-62
2021/09/20 01:35:18;;;;;;;6.57;4.90;;;9.60;99.90;;;;;;5096767;28;20048;-62
2021/09/20 01:37:44;;;;;;;8.35;4.68;;;9.60;99.90;;;;;;5098837;28;20048;-62
2021/09/20 01:40:10;;;;;;;8.18;5.75;;;9.60;99.90;;;;;;5096373;28;20044;-62
2021/09/20 01:42:36;;;;;;;7.38;4.85;;;9.60;99.90;;;;;;5118526;28;20082;-62
2021/09/20 01:45:02;;;;;;;8.65;5.80;;;9.60;99.90;;;;;;5103934;28;20059;-62
2021/09/20 01:47:28;;;;;;;7.07;4.57;;;9.50;99.90;;;;;;5053831;28;1098983;-62
2021/09/20 01:49:53;;;;;;;7.40;5.55;;;9.50;99.90;;;;;;5098819;28;20056;-62
2021/09/20 01:52:19;;;;;;;7.20;5.50;;;9.50;99.90;;;;;;5097765;28;20040;-62
2021/09/20 01:54:45;;;;;;;7.38;4.80;;;9.40;99.90;;;;;;5101184;28;20040;-62
2021/09/20 01:57:12;;;;;;;8.52;5.57;;;9.40;99.90;;;;;;5097270;28;20118;-62
2021/09/20 01:59:37;;;;;;;6.57;4.68;;;9.40;99.90;;;;;;5095647;28;20084;-62
2021/09/20 02:02:03;;;;;;;8.23;5.35;;;9.40;99.90;;;;;;5096819;28;20048;-62
2021/09/20 02:04:29;;;;;;;7.57;5.00;;;9.40;99.90;;;;;;5102024;28;20056;-62
2021/09/20 02:06:55;;;;;;;6.68;5.18;;;9.40;99.90;;;;;;5101217;28;20036;-62
2021/09/20 02:09:21;;;;;;;7.05;5.70;;;9.40;99.90;;;;;;5103229;28;20035;-62
2021/09/20 02:11:47;;;;;;;7.40;5.45;;;9.40;99.90;;;;;;5097213;28;20090;-62
2021/09/20 02:14:13;;;;;;;7.60;5.13;;;9.50;99.90;;;;;;5103026;28;20052;-62
2021/09/20 02:16:38;;;;;;;6.30;4.93;;;9.50;99.90;;;;;;5103232;28;20108;-62
2021/09/20 02:19:04;;;;;;;6.97;5.18;;;9.60;99.90;;;;;;5105047;28;20040;-62
2021/09/20 02:21:30;;;;;;;7.35;5.15;;;9.60;99.90;;;;;;5099387;28;20052;-62
2021/09/20 02:23:56;;;;;;;6.95;5.13;;;9.60;99.90;;;;;;5102132;28;20036;-62
2021/09/20 02:26:22;;;;;;;6.88;4.82;;;9.60;99.90;;;;;;5097568;28;20130;-62
2021/09/20 02:28:47;;;;;;;7.05;5.13;;;9.70;99.90;;;;;;5092373;28;20044;-62
2021/09/20 02:31:13;;;;;;;6.43;4.70;;;9.70;99.90;;;;;;5089133;28;20085;-62
2021/09/20 02:33:40;;;;;;;7.90;5.80;;;9.70;99.90;;;;;;5096776;28;20056;-62
2021/09/20 02:36:07;;;;;;;6.65;5.25;;;9.80;99.90;;;;;;5098761;28;20119;-62
2021/09/20 02:38:33;;;;;;;6.03;5.05;;;9.80;99.90;;;;;;5092096;28;20078;-62
2021/09/20 02:41:00;;;;;;;7.80;5.47;;;9.80;99.90;;;;;;5097866;28;20052;-62
2021/09/20 02:43:26;;;;;;;8.90;6.93;;;9.80;99.90;;;;;;5095403;28;20044;-62
2021/09/20 02:45:52;;;;;;;7.22;5.60;;;9.80;99.90;;;;;;5088323;28;20060;-62
2021/09/20 02:48:18;;;;;;;8.07;5.60;;;9.90;99.90;;;;;;5083915;28;20053;-62
2021/09/20 02:50:44;;;;;;;7.00;4.93;;;9.90;99.90;;;;;;5100049;28;20054;-64
2021/09/20 02:53:10;;;;;;;8.43;5.53;;;9.90;99.90;;;;;;5103179;28;20261;-62
2021/09/20 02:55:35;;;;;;;7.75;5.63;;;9.90;99.90;;;;;;5102929;28;20131;-62
2021/09/20 02:58:01;;;;;;;8.40;6.63;;;9.90;99.90;;;;;;5101739;28;20539;-62
2021/09/20 03:00:27;;;;;;;7.78;6.00;;;10.00;99.90;;;;;;5097138;28;20036;-62
2021/09/20 03:02:53;;;;;;;10.50;6.68;;;10.10;99.90;;;;;;5101594;28;20173;-64
2021/09/20 03:05:18;;;;;;;8.15;5.13;;;10.20;99.90;;;;;;5101181;28;20044;-62
2021/09/20 03:07:44;;;;;;;8.32;5.72;;;10.20;99.90;;;;;;5096263;28;20048;-62
2021/09/20 03:10:10;;;;;;;8.82;6.35;;;10.20;99.90;;;;;;5100759;28;20036;-62
2021/09/20 03:12:37;;;;;;;7.47;5.28;;;10.20;99.90;;;;;;5092909;28;20059;-62
2021/09/20 03:15:04;;;;;;;7.22;5.28;;;10.20;99.90;;;;;;5097281;28;20048;-63
2021/09/20 03:17:29;;;;;;;9.43;6.72;;;10.30;99.90;;;;;;5096499;28;20052;-62
2021/09/20 03:19:55;;;;;;;8.90;6.22;;;10.30;99.90;;;;;;5101413;28;20048;-62
2021/09/20 03:22:21;;;;;;;7.43;5.57;;;10.40;99.90;;;;;;5097773;28;20089;-62
2021/09/20 03:24:47;;;;;;;7.90;6.40;;;10.40;99.90;;;;;;5097345;28;20522;-62
2021/09/20 03:27:14;;;;;;;9.75;6.25;;;10.40;99.90;;;;;;5100735;28;20044;-63
2021/09/20 03:29:40;;;;;;;9.82;6.53;;;10.40;99.90;;;;;;5100348;28;20050;-62
2021/09/20 03:32:06;;;;;;;7.53;5.75;;;10.50;99.90;;;;;;5102804;28;20071;-62
2021/09/20 03:34:32;;;;;;;7.10;5.93;;;10.50;99.90;;;;;;5100150;28;20040;-62
2021/09/20 03:36:57;;;;;;;8.10;6.45;;;10.60;99.90;;;;;;5101109;28;20480;-62
2021/09/20 03:39:23;;;;;;;9.05;6.60;;;10.60;99.90;;;;;;5093372;28;20041;-62
2021/09/20 03:41:48;;;;;;;8.82;6.15;;;10.60;99.90;;;;;;5095699;28;20087;-62
2021/09/20 03:44:14;;;;;;;9.35;6.55;;;10.70;99.90;;;;;;5087711;28;20032;-62
2021/09/20 03:46:41;;;;;;;8.60;6.53;;;10.80;99.90;;;;;;5100377;28;20117;-62
2021/09/20 03:49:07;;;;;;;8.68;6.10;;;10.80;99.90;;;;;;5101348;28;20108;-62
2021/09/20 03:51:33;;;;;;;9.88;6.18;;;10.80;99.90;;;;;;5094799;28;20393;-63
2021/09/20 03:53:58;;;;;;;8.30;6.45;;;10.90;99.90;;;;;;5098265;28;20046;-62
2021/09/20 03:56:24;;;;;;;9.25;6.32;;;10.90;99.90;;;;;;5097672;28;20048;-62
2021/09/20 03:58:50;;;;;;;9.15;5.93;;;11.00;99.90;;;;;;5095467;28;20044;-62
2021/09/20 04:01:15;;;;;;;8.07;6.43;;;11.00;99.90;;;;;;5095698;28;20032;-62
2021/09/20 04:03:41;;;;;;;9.55;6.07;;;11.00;99.90;;;;;;5094358;28;20394;-63
2021/09/20 04:06:07;;;;;;;9.05;5.95;;;11.00;99.90;;;;;;5101931;28;20059;-62
2021/09/20 04:08:33;;;;;;;10.60;6.40;;;11.00;99.90;;;;;;5096133;28;20051;-62
2021/09/20 04:10:59;;;;;;;10.20;7.18;;;11.00;99.90;;;;;;5099321;28;20055;-62
2021/09/20 04:13:25;;;;;;;8.25;6.13;;;11.10;99.90;;;;;;5100349;28;20039;-62
2021/09/20 04:15:55;;;;;;;8.48;7.00;;;11.10;99.90;;;;;;5101662;28;20508;-63
2021/09/20 04:18:26;;;;;;;9.45;6.38;;;11.10;99.90;;;;;;5099114;28;20052;-62
2021/09/20 04:20:53;;;;;;;9.95;6.60;;;11.20;99.90;;;;;;5096586;28;20044;-62
2021/09/20 04:23:21;;;;;;;9.35;6.55;;;11.20;99.90;;;;;;5096253;28;20037;-62
2021/09/20 04:25:48;;;;;;;7.28;6.30;;;11.30;99.90;;;;;;5098244;28;20052;-62
2021/09/20 04:28:14;;;;;;;9.38;7.03;;;11.30;99.90;;;;;;5100029;28;20122;-62
2021/09/20 04:30:43;;;;;;;9.45;6.80;;;11.30;99.90;;;;;;5091690;28;20051;-62
2021/09/20 04:33:14;;;;;;;9.30;7.17;;;11.30;99.90;;;;;;5087959;28;20164;-62
2021/09/20 04:35:40;;;;;;;8.27;6.82;;;11.40;99.90;;;;;;5094878;28;20048;-62
2021/09/20 04:38:07;;;;;;;8.20;6.00;;;11.40;99.90;;;;;;5075449;28;20052;-62
2021/09/20 04:40:34;;;;;;;9.30;6.65;;;11.40;99.90;;;;;;5099335;28;20511;-62
2021/09/20 04:43:00;;;;;;;10.65;6.72;;;11.40;99.90;;;;;;5103596;28;20044;-62
2021/09/20 04:45:26;;;;;;;9.13;6.43;;;11.40;99.90;;;;;;5099150;28;20056;-64
2021/09/20 04:47:52;;;;;;;7.80;6.40;;;11.50;99.90;;;;;;5103425;28;20098;-63
2021/09/20 04:50:18;;;;;;;9.88;7.07;;;11.50;99.90;;;;;;5103067;28;20067;-62
2021/09/20 04:52:43;;;;;;;10.27;6.60;;;11.50;99.90;;;;;;5087206;28;20048;-63
2021/09/20 04:55:09;;;;;;;11.65;6.53;;;11.50;99.90;;;;;;5098623;28;20032;-63
2021/09/20 04:57:36;;;;;;;9.68;6.47;;;11.50;99.90;;;;;;5103216;28;20040;-63
2021/09/20 05:00:03;;;;;;;8.80;6.75;;;11.50;99.90;;;;;;5100132;28;20101;-63
2021/09/20 05:02:29;;;;;;;8.60;6.15;;;11.50;99.90;;;;;;5101825;28;20039;-64
2021/09/20 05:04:55;;;;;;;7.22;5.63;;;11.50;99.90;;;;;;5092143;28;20415;-64
2021/09/20 05:07:20;;;;;;;8.23;6.50;;;11.60;99.90;;;;;;5101301;28;20060;-64
2021/09/20 05:09:46;;;;;;;8.50;6.35;;;11.60;99.90;;;;;;5097413;28;20052;-63
2021/09/20 05:12:12;;;;;;;8.35;6.57;;;11.60;99.90;;;;;;5104709;28;20052;-63
2021/09/20 05:14:37;;;;;;;7.30;5.78;;;11.60;99.90;;;;;;5103435;28;20145;-65
2021/09/20 05:17:05;;;;;;;9.45;6.47;;;11.60;99.90;;;;;;5105551;28;20123;-62
2021/09/20 05:19:31;;;;;;;9.38;6.30;;;11.60;99.90;;;;;;5103506;28;20490;-63
2021/09/20 05:21:57;;;;;;;10.70;5.95;;;11.70;99.90;;;;;;5098591;28;20103;-63
2021/09/20 05:24:23;;;;;;;8.88;6.75;;;11.70;99.90;;;;;;5102174;28;20103;-63
2021/09/20 05:26:49;;;;;;;7.55;6.28;;;11.60;99.90;;;;;;5096214;28;20080;-63
2021/09/20 05:29:15;;;;;;;6.75;6.05;;;11.70;99.90;;;;;;5109662;28;20032;-63
2021/09/20 05:31:41;;;;;;;8.60;6.75;;;11.60;99.90;;;;;;5102802;28;20052;-63
2021/09/20 05:34:07;;;;;;;8.48;6.10;;;11.70;99.90;;;;;;5103607;28;20071;-63
2021/09/20 05:36:32;;;;;;;7.72;5.85;;;11.70;99.90;;;;;;5097079;28;20042;-63
2021/09/20 05:38:58;;;;;;;7.80;5.97;;;11.70;99.90;;;;;;5089268;28;20056;-63
2021/09/20 05:41:24;;;;;;;9.85;6.30;;;11.70;99.90;;;;;;5102782;28;20043;-63
2021/09/20 05:43:49;;;;;;;10.75;6.57;;;11.70;99.90;;;;;;5098375;28;20076;-63
2021/09/20 05:46:15;;;;;;;7.80;6.25;;;11.70;99.90;;;;;;5103146;28;20048;-63
2021/09/20 05:48:41;;;;;;;11.02;6.82;;;11.70;99.90;;;;;;5100697;28;20060;-62
2021/09/20 05:51:07;;;;;;;9.18;6.93;;;11.70;99.90;;;;;;5099310;28;20063;-62
2021/09/20 05:53:33;;;;;;;9.52;6.32;;;11.70;99.90;;;;;;5097570;28;20044;-63
2021/09/20 05:55:59;;;;;;;7.75;6.20;;;11.80;99.90;;;;;;5096551;28;20083;-62
2021/09/20 05:58:25;;;;;;;7.85;6.18;;;11.80;99.90;;;;;;5075441;27;20043;-61
2021/09/20 06:00:51;;;;;;;10.07;6.20;;;11.80;99.90;;;;;;5089098;28;20051;-63
2021/09/20 06:03:17;;;;;;;8.40;6.65;;;11.80;99.90;;;;;;5086113;27;20117;-61
2021/09/20 06:05:43;;;;;;;8.60;6.53;;;11.90;99.90;;;;;;5103625;27;20135;-61
2021/09/20 06:08:09;;;;;;;8.82;6.80;;;11.90;99.90;;;;;;5101692;27;20273;-61
2021/09/20 06:10:37;;;;;;;8.93;6.53;;;11.90;99.90;;;;;;5102887;28;20043;-61
2021/09/20 06:13:06;;;;;;;8.63;6.65;;;12.00;99.90;;;;;;5102073;27;20118;-61
2021/09/20 06:15:32;;;;;;;8.40;6.57;;;12.00;99.90;;;;;;5100989;28;20047;-61
2021/09/20 06:17:58;;;;;;;11.55;6.88;;;12.00;99.90;;;;;;5105098;27;20051;-61
2021/09/20 06:20:24;;;;;;;9.13;6.35;;;12.00;99.90;;;;;;5097198;28;20240;-61
2021/09/20 06:22:50;;;;;;;10.63;6.30;;;12.10;99.90;;;;;;5093580;27;20062;-61
2021/09/20 06:25:16;;;;;;;8.90;6.68;;;12.10;99.90;;;;;;5113425;27;20044;-61
2021/09/20 06:27:42;;;;;;;9.75;6.68;;;12.10;99.90;;;;;;5095962;27;20059;-61
2021/09/20 06:30:11;;;;;;;7.90;6.57;;;12.10;99.90;;;;;;5115818;27;20051;-61
2021/09/20 06:32:37;;;;;;;9.32;6.55;;;12.20;99.90;;;;;;5087557;27;20054;-61
2021/09/20 06:35:03;;;;;;;10.15;6.72;;;12.20;99.90;;;;;;5116632;27;20036;-61
2021/09/20 06:37:29;;;;;;;10.20;6.30;;;12.30;99.90;;;;;;5078812;27;20088;-62
2021/09/20 06:39:55;;;;;;;9.50;6.68;;;12.30;99.90;;;;;;5111962;27;20060;-61
2021/09/20 06:42:20;;;;;;;8.98;5.80;;;12.40;99.90;;;;;;5079662;27;20203;-61
2021/09/20 06:44:51;;;;;;;9.32;6.72;;;12.50;99.90;;;;;;5125881;27;20054;-62
2021/09/20 06:47:21;;;;;;;6.75;5.95;;;12.50;99.90;;;;;;5083359;27;20052;-61
2021/09/20 06:49:47;;;;;;;6.75;6.05;;;12.60;99.90;;;;;;5091381;28;20060;-61
2021/09/20 06:52:13;;;;;;;10.02;6.88;;;12.60;99.90;;;;;;5081292;27;20089;-61
2021/09/20 06:54:39;;;;;;;8.05;6.15;;;12.60;99.90;;;;;;5121984;27;20040;-61
2021/09/20 06:57:05;;;;;;;9.27;6.32;;;12.70;99.90;;;;;;5088456;28;20068;-62
2021/09/20 06:59:31;;;;;;;8.25;5.88;;;12.70;99.90;;;;;;5126197;27;20048;-61
2021/09/20 07:01:56;;;;;;;7.88;6.05;;;12.80;99.90;;;;;;5083630;28;20056;-61
2021/09/20 07:04:22;;;;;;;7.90;5.78;;;12.80;99.90;;;;;;5089842;27;20071;-61
2021/09/20 07:06:48;;;;;;;7.85;5.43;;;12.80;99.90;;;;;;5077872;28;20059;-61
2021/09/20 07:09:14;;;;;;;10.35;5.53;;;12.90;99.90;;;;;;5114991;27;20077;-61
2021/09/20 07:11:41;;;;;;;11.82;6.15;;;12.90;99.90;;;;;;5086030;28;20048;-62
2021/09/20 07:14:07;;;;;;;13.23;5.88;;;12.90;99.90;;;;;;5105080;27;20063;-61
2021/09/20 07:16:33;;;;;;;9.75;5.75;;;12.90;99.90;;;;;;5082088;28;20090;-61
2021/09/20 07:18:59;;;;;;;13.02;5.65;;;13.00;99.90;;;;;;5094081;27;20067;-61
2021/09/20 07:21:26;;;;;;;10.95;6.05;;;13.00;99.90;;;;;;5085361;28;20044;-62
2021/09/20 07:23:56;;;;;;;7.85;5.22;;;13.10;99.90;;;;;;5087288;28;20048;-61
2021/09/20 07:26:25;;;;;;;10.65;5.38;;;13.10;99.90;;;;;;5093712;28;20116;-61
2021/09/20 07:28:51;;;;;;;8.27;5.60;;;13.10;99.90;;;;;;5105978;27;20467;-61
2021/09/20 07:31:17;;;;;;;6.97;5.18;;;13.20;99.90;;;;;;5085426;28;20066;-61
2021/09/20 07:33:43;;;;;;;9.35;5.55;;;13.30;99.90;;;;;;5092453;28;20520;-61
2021/09/20 07:36:09;;;;;;;9.20;5.70;;;13.30;99.90;;;;;;5100217;28;20112;-61
2021/09/20 07:38:36;;;;;;;7.50;5.07;;;13.30;99.90;;;;;;5089123;27;20059;-61
2021/09/20 07:41:02;;;;;;;8.75;5.50;;;13.30;99.90;;;;;;5100463;28;20083;-61
2021/09/20 07:43:28;;;;;;;8.23;5.35;;;13.40;99.90;;;;;;5105475;27;20051;-61
2021/09/20 07:45:54;;;;;;;7.72;4.90;;;13.50;99.90;;;;;;5100815;28;20040;-63
2021/09/20 07:48:20;;;;;;;12.52;5.55;;;13.60;99.90;;;;;;5095831;27;20051;-61
2021/09/20 07:50:45;;;;;;;10.27;4.60;;;13.60;99.90;;;;;;5103919;28;20054;-61
2021/09/20 07:53:11;;;;;;;5.30;4.55;;;13.60;99.90;;;;;;5089287;27;20047;-61
2021/09/20 07:55:37;;;;;;;7.90;4.53;;;13.70;99.90;;;;;;5106954;28;20039;-61
2021/09/20 07:58:04;;;;;;;6.93;5.15;;;13.70;99.90;;;;;;5093132;27;20075;-61
2021/09/20 08:00:31;;;;;;;8.75;4.22;;;13.70;99.90;;;;;;5118775;28;20306;-61
2021/09/20 08:02:57;;;;;;;6.53;4.82;;;13.80;99.90;;;;;;5089283;27;20051;-61
2021/09/20 08:05:23;;;;;;;9.23;4.40;;;13.80;99.90;;;;;;5098462;28;20040;-62
2021/09/20 08:07:48;;;;;;;7.60;4.40;;;13.80;99.90;;;;;;5086015;28;20047;-61
2021/09/20 08:10:14;;;;;;;7.80;4.80;;;13.90;99.90;;;;;;5088358;28;20059;-61
2021/09/20 08:12:41;;;;;;;5.93;3.75;;;13.90;99.90;;;;;;5078295;27;20048;-61
2021/09/20 08:15:07;;;;;;;7.53;4.50;;;14.00;99.90;;;;;;5111771;28;20047;-61
2021/09/20 08:17:33;;;;;;;6.32;4.05;;;14.00;99.90;;;;;;5085524;27;20040;-62
2021/09/20 08:20:01;;;;;;;7.53;4.30;;;14.00;99.90;;;;;;5117323;27;20055;-61
2021/09/20 08:22:27;;;;;;;4.70;4.00;;;14.00;99.90;;;;;;5084104;28;20084;-62
2021/09/20 08:24:53;;;;;;;5.93;4.22;;;14.10;99.90;;;;;;5126309;27;20214;-61
2021/09/20 08:27:18;;;;;;;6.60;4.25;;;14.10;99.90;;;;;;5093974;28;20076;-61
2021/09/20 08:29:44;;;;;;;5.43;3.45;;;14.20;99.90;;;;;;5100439;27;20506;-61
2021/09/20 08:32:10;;;;;;;6.75;3.85;;;14.20;99.90;;;;;;5095762;28;20062;-61
2021/09/20 08:34:36;;;;;;;8.25;3.65;;;14.30;99.90;;;;;;5096530;27;20056;-61
2021/09/20 08:37:03;;;;;;;6.28;3.30;;;14.30;99.90;;;;;;5091920;28;20044;-61
2021/09/20 08:39:29;;;;;;;5.68;3.28;;;14.30;99.90;;;;;;5098642;27;20035;-61
2021/09/20 08:41:56;;;;;;;4.03;3.30;;;14.40;99.90;;;;;;5092226;28;20526;-61
2021/09/20 08:44:22;;;;;;;4.30;3.25;;;14.50;99.90;;;;;;5116004;27;20050;-61
2021/09/20 08:46:51;;;;;;;3.72;3.20;;;14.50;99.90;;;;;;5099822;28;20056;-61
2021/09/20 08:49:20;;;;;;;4.20;3.40;;;14.50;99.90;;;;;;5107993;27;20088;-61
2021/09/20 08:51:46;;;;;;;4.07;2.97;;;14.60;99.90;;;;;;5096886;27;20123;-61
2021/09/20 08:54:12;;;;;;;6.15;2.92;;;14.70;99.90;;;;;;5110476;27;20612;-61
2021/09/20 08:56:38;;;;;;;5.10;2.90;;;14.70;99.90;;;;;;5102943;27;20089;-61
2021/09/20 08:59:04;;;;;;;4.68;2.85;;;14.70;99.90;;;;;;5105425;27;20085;-61
2021/09/20 09:01:31;;;;;;;5.00;2.67;;;14.80;99.90;;;;;;5097562;28;20044;-61
2021/09/20 09:04:35;;;;;;;6.20;2.92;;;14.90;99.90;;;;;;5096572;27;20050;-61
2021/09/20 09:07:03;;;;;;;4.45;2.40;;;14.90;99.90;;;;;;5099240;28;20032;-61
2021/09/20 09:09:35;;;;;;;3.53;2.55;;;15.00;99.90;;;;;;5103601;27;20438;-61
2021/09/20 09:12:23;;;;;;;6.20;3.20;;;15.00;99.90;;;;;;5090268;28;20048;-61
2021/09/20 09:15:00;;;;;;;4.75;2.67;;;15.10;99.90;;;;;;5098232;27;20136;-61
2021/09/20 09:17:30;;;;;;;3.28;2.20;;;15.20;99.90;;;;;;5094107;28;20393;-61
2021/09/20 09:20:09;;;;;;;4.68;2.55;;;15.30;99.90;;;;;;5094199;27;20048;-61
2021/09/20 09:22:41;;;;;;;3.50;2.00;;;15.30;99.90;;;;;;5095751;28;20049;-61
2021/09/20 09:25:09;;;;;;;4.43;2.03;;;15.40;99.90;;;;;;5084007;28;20047;-61
2021/09/20 09:27:37;;;;;;;4.72;2.05;;;15.50;99.90;;;;;;5097235;28;20078;-61
2021/09/20 09:30:11;;;;;;;5.18;1.85;;;15.50;99.90;;;;;;5120906;27;20487;-61
2021/09/20 09:32:38;;;;;;;4.47;2.28;;;15.50;99.90;;;;;;5091589;28;20079;-61
2021/09/20 09:35:07;;;;;;;3.80;2.15;;;15.70;99.90;;;;;;5097939;28;20507;-61
2021/09/20 09:37:35;;;;;;;5.57;2.17;;;15.80;99.90;;;;;;5093742;28;20075;-61
2021/09/20 09:40:25;;;;;;;3.75;2.05;;;15.80;99.90;;;;;;5101379;27;20051;-61
2021/09/20 09:42:58;;;;;;;3.95;1.90;;;16.00;99.90;;;;;;5079656;27;20056;-61
2021/09/20 09:45:30;;;;;;;4.18;1.85;;;16.10;99.90;;;;;;5099499;28;20136;-61
2021/09/20 09:48:14;;;;;;;3.00;1.65;;;16.10;99.90;;;;;;5087843;28;20539;-61
2021/09/20 09:50:47;;;;;;;3.65;1.73;;;16.20;99.90;;;;;;5105199;28;20055;-61
2021/09/20 09:53:23;;;;;;;2.97;1.73;;;16.30;99.90;;;;;;5091862;27;20451;-61
2021/09/20 09:55:49;;;;;;;2.50;1.70;;;16.40;99.90;;;;;;5092335;28;20317;-61
2021/09/20 09:58:16;;;;;;;5.13;2.00;;;16.50;99.90;;;;;;5079015;27;20035;-61
2021/09/20 10:00:44;;;;;;;2.40;1.65;;;16.70;99.90;;;;;;5119808;27;20112;-61
2021/09/20 10:03:10;;;;;;;3.47;1.98;;;16.70;99.90;;;;;;5082221;27;20059;-61
2021/09/20 10:05:35;;;;;;;2.67;1.50;;;16.90;99.90;;;;;;5109667;28;20040;-61
2021/09/20 10:08:11;;;;;;;2.38;1.60;;;16.90;99.90;;;;;;5086613;27;20062;-61
2021/09/20 10:10:38;;;;;;;3.13;1.60;;;16.90;99.90;;;;;;5120815;27;20495;-61
2021/09/20 10:13:04;;;;;;;2.95;1.70;;;16.90;99.90;;;;;;5090124;27;20047;-61
2021/09/20 10:15:32;;;;;;;3.58;1.80;;;16.90;99.90;;;;;;5092902;28;20052;-61
2021/09/20 10:17:59;;;;;;;4.57;1.83;;;16.80;99.90;;;;;;5083546;27;20465;-62
2021/09/20 10:20:27;;;;;;;3.63;1.42;;;16.80;99.90;;;;;;5121479;27;20044;-62
2021/09/20 10:22:54;;;;;;;4.95;1.60;;;16.90;99.90;;;;;;5086140;28;20121;-63
2021/09/20 10:25:23;;;;;;;3.40;1.40;;;16.90;99.90;;;;;;5124439;27;20048;-61
2021/09/20 10:27:50;;;;;;;1.90;1.50;;;16.90;99.90;;;;;;5094648;28;20411;-61
2021/09/20 10:30:30;;;;;;;2.90;1.70;;;17.00;99.90;;;;;;5113795;27;20059;-61
2021/09/20 10:33:09;;;;;;;2.50;1.80;;;17.00;99.90;;;;;;5086185;27;20063;-64
2021/09/20 10:35:36;;;;;;;3.30;1.48;;;17.10;99.90;;;;;;5120177;27;20036;-61
2021/09/20 10:38:02;;;;;;;3.10;1.33;;;17.10;99.90;;;;;;5074704;27;20048;-62
2021/09/20 10:40:29;;;;;;;4.55;2.05;;;17.20;99.90;;;;;;5119185;27;20132;-61
2021/09/20 10:43:00;;;;;;;2.45;1.45;;;17.20;99.90;;;;;;5090874;28;20050;-63
2021/09/20 10:45:45;;;;;;;1.60;1.50;;;17.30;99.90;;;;;;5125231;27;20603;-61
2021/09/20 10:48:30;;;;;;;3.35;1.73;;;17.30;99.90;;;;;;5088046;27;20051;-61
2021/09/20 10:51:01;;;;;;;2.33;1.50;;;17.30;99.90;;;;;;5119884;27;20044;-61
2021/09/20 10:53:36;;;;;;;2.55;1.70;;;17.20;99.90;;;;;;5087529;27;20043;-61
2021/09/20 10:56:06;;;;;;;3.95;1.50;;;17.20;99.90;;;;;;5102293;28;20101;-63
2021/09/20 10:58:54;;;;;;;3.72;1.50;;;17.20;99.90;;;;;;5095077;27;20043;-62
2021/09/20 11:01:25;;;;;;;1.85;1.55;;;17.30;99.90;;;;;;5095644;28;20087;-62
2021/09/20 11:03:59;;;;;;;5.30;1.63;;;17.30;99.90;;;;;;5097187;27;20043;-61
2021/09/20 11:06:29;;;;;;;2.60;1.40;;;17.40;99.90;;;;;;5106445;28;20101;-62
2021/09/20 11:08:57;;;;;;;;;;;17.50;99.90;;;;;;5101226;27;20050;-62
2021/09/20 11:14:15;;;;;;;2.20;1.25;;;17.60;99.90;;;;;;5091364;27;20059;-61
2021/09/20 11:16:52;;;;;;;2.83;1.50;;;17.70;99.90;;;;;;5103956;27;20099;-62
2021/09/20 11:19:27;;;;;;;2.17;1.30;;;17.80;99.90;;;;;;5099663;27;20104;-62
2021/09/20 11:22:16;;;;;;;2.38;1.40;;;17.80;99.90;;;;;;5095441;28;20052;-62
2021/09/20 11:24:55;;;;;;;2.15;1.42;;;17.90;99.90;;;;;;5078742;28;20106;-62
2021/09/20 11:27:26;;;;;;;2.15;1.17;;;17.80;99.90;;;;;;5095601;28;20079;-62
2021/09/20 11:30:09;;;;;;;2.63;1.52;;;17.70;99.90;;;;;;5099322;27;20051;-62
2021/09/20 11:32:57;;;;;;;2.45;1.30;;;17.60;99.90;;;;;;5120708;27;20109;-62
2021/09/20 11:35:29;;;;;;;2.22;1.70;;;17.50;99.90;;;;;;5090092;28;20044;-61
2021/09/20 11:37:57;;;;;;;2.65;1.60;;;17.30;99.90;;;;;;5079136;28;20059;-62
2021/09/20 11:40:25;;;;;;;2.40;1.52;;;17.20;99.90;;;;;;5092197;27;20111;-62
2021/09/20 11:42:55;;;;;;;3.70;1.70;;;17.00;99.90;;;;;;5093244;28;20119;-61
2021/09/20 11:45:22;;;;;;;4.18;1.50;;;16.80;99.90;;;;;;5101408;27;20046;-62
2021/09/20 11:47:51;;;;;;;2.72;1.55;;;16.80;99.90;;;;;;5098529;28;20063;-62
2021/09/20 11:50:19;;;;;;;3.03;1.48;;;16.70;99.90;;;;;;5118563;27;20604;-62
2021/09/20 11:52:51;;;;;;;2.25;1.30;;;16.60;99.90;;;;;;5089047;28;20497;-62
2021/09/20 11:55:19;;;;;;;3.92;1.73;;;16.60;99.90;;;;;;5106169;27;20094;-62
2021/09/20 11:57:48;;;;;;;1.65;1.42;;;16.60;99.90;;;;;;5087305;28;20056;-62
2021/09/20 12:00:17;;;;;;;2.83;1.67;;;16.50;99.90;;;;;;5120902;27;20135;-61
2021/09/20 12:02:54;;;;;;;3.83;1.70;;;16.50;99.90;;;;;;5082416;28;20060;-61
2021/09/20 12:05:29;;;;;;;1.70;1.48;;;16.50;99.90;;;;;;5107984;27;20066;-61
2021/09/20 12:08:06;;;;;;;1.45;1.20;;;16.40;99.90;;;;;;5074993;28;20056;-62
2021/09/20 12:10:38;;;;;;;3.83;1.30;;;16.30;99.90;;;;;;5122071;27;20501;-61
2021/09/20 12:13:27;;;;;;;2.67;1.80;;;16.30;99.90;;;;;;5128993;27;20044;-62
2021/09/20 12:15:56;;;;;;;2.85;1.38;;;16.30;99.90;;;;;;5073609;28;20159;-61
2021/09/20 12:18:28;;;;;;;2.35;1.52;;;16.30;99.90;;;;;;5092856;27;20103;-63
2021/09/20 12:20:57;;;;;;;5.45;2.08;;;16.30;99.90;;;;;;5102010;27;20329;-62
2021/09/20 12:23:25;;;;;;;2.53;1.60;;;16.40;99.90;;;;;;5082679;27;20078;-62
2021/09/20 12:25:56;;;;;;;4.03;2.53;;;16.60;99.90;;;;;;5111360;27;20048;-61
2021/09/20 12:28:30;;;;;;;4.07;1.40;;;16.70;99.90;;;;;;5089947;27;20036;-62
2021/09/20 12:31:13;;;;;;;4.38;1.40;;;16.80;99.90;;;;;;5098808;27;20082;-62
2021/09/20 12:33:56;;;;;;;3.22;1.50;;;16.90;99.90;;;;;;5092594;27;20559;-62
2021/09/20 12:36:29;;;;;;;4.43;1.30;;;17.10;99.90;;;;;;5111902;27;20075;-61
2021/09/20 12:38:59;;;;;;;4.55;1.67;;;17.20;99.90;;;;;;5065079;27;20058;-62
2021/09/20 12:41:32;;;;;;;5.05;1.50;;;17.30;99.90;;;;;;5116501;27;20055;-62
2021/09/20 12:43:58;;;;;;;2.50;1.20;;;17.40;99.90;;;;;;5099198;27;20047;-62
2021/09/20 12:46:24;;;;;;;2.67;1.48;;;17.30;99.90;;;;;;5103054;28;20048;-62
2021/09/20 12:48:54;;;;;;;2.47;1.70;;;17.40;99.90;;;;;;5095225;27;20259;-62
2021/09/20 12:51:20;;;;;;;2.63;1.38;;;17.40;99.90;;;;;;5120506;27;20047;-62
2021/09/20 12:53:49;;;;;;;2.63;1.55;;;17.50;99.90;;;;;;5069584;27;20039;-62